Time;durP1;ratioP1;P1;durP2;ratioP2;P2;SDS_P1;SDS_P2;PMS_P1;PMS_P2;Temp;Humidity;BMP_temperature;BMP_pressure;BME280_temperature;BME280_humidity;BME280_pressure;Samples;Min_cycle;Max_cycle;Signal;HPM_P1;HPM_P2
2024/02/06 00:00:44;;;;;;;27.83;16.55;;;;;;;;;;5071086;28;20103;-73
2024/02/06 00:03:10;;;;;;;33.88;18.02;;;;;;;;;;5069518;28;20024;-72
2024/02/06 00:05:36;;;;;;;32.10;18.75;;;;;;;;;;5070432;28;20035;-73
2024/02/06 00:08:02;;;;;;;40.58;21.13;;;;;;;;;;5070772;28;20025;-73
2024/02/06 00:10:28;;;;;;;31.88;18.98;;;;;;;;;;5069685;28;20090;-73
2024/02/06 00:12:54;;;;;;;31.63;18.20;;;;;;;;;;5070211;28;20055;-73
2024/02/06 00:15:20;;;;;;;31.17;17.92;;;;;;;;;;5069606;28;20090;-73
2024/02/06 00:17:46;;;;;;;32.40;18.75;;;;;;;;;;5070724;28;20377;-73
2024/02/06 00:20:12;;;;;;;34.92;18.60;;;;;;;;;;5069657;28;20025;-73
2024/02/06 00:22:38;;;;;;;33.90;19.08;;;;;;;;;;5051918;28;20013;-73
2024/02/06 00:25:05;;;;;;;29.48;17.92;;;;;;;;;;5069992;28;20036;-73
2024/02/06 00:27:31;;;;;;;33.60;19.63;;;;;;;;;;5069372;28;20076;-73
2024/02/06 00:29:57;;;;;;;33.92;20.10;;;;;;;;;;5070372;28;20029;-73
2024/02/06 00:32:23;;;;;;;34.95;20.05;;;;;;;;;;5069455;28;20028;-73
2024/02/06 00:34:49;;;;;;;33.92;21.08;;;;;;;;;;5069766;28;20035;-72
2024/02/06 00:37:18;;;;;;;43.10;22.92;;;;;;;;;;5069853;28;20029;-73
2024/02/06 00:39:44;;;;;;;35.42;20.50;;;;;;;;;;5069897;28;20021;-73
2024/02/06 00:42:10;;;;;;;39.22;21.55;;;;;;;;;;5063589;28;20029;-73
2024/02/06 00:44:39;;;;;;;39.90;23.02;;;;;;;;;;5069765;28;20029;-73
2024/02/06 00:47:05;;;;;;;39.22;23.63;;;;;;;;;;5052184;28;20536;-72
2024/02/06 00:49:31;;;;;;;39.33;22.88;;;;;;;;;;5069576;28;20024;-74
2024/02/06 00:51:57;;;;;;;41.75;23.25;;;;;;;;;;5070301;28;20165;-74
2024/02/06 00:54:23;;;;;;;38.88;22.60;;;;;;;;;;5067736;28;20032;-73
2024/02/06 00:56:49;;;;;;;43.47;22.88;;;;;;;;;;5070901;28;20016;-72
2024/02/06 00:59:15;;;;;;;39.80;23.90;;;;;;;;;;5069016;28;20596;-73
2024/02/06 01:01:41;;;;;;;40.83;23.55;;;;;;;;;;5069641;28;20404;-73
2024/02/06 01:04:07;;;;;;;41.35;23.52;;;;;;;;;;5069183;28;20025;-72
2024/02/06 01:06:33;;;;;;;43.85;23.50;;;;;;;;;;5077304;28;20098;-73
2024/02/06 01:08:59;;;;;;;43.25;22.83;;;;;;;;;;5074677;28;20063;-73
2024/02/06 01:11:25;;;;;;;38.35;23.17;;;;;;;;;;5072987;28;20035;-73
2024/02/06 01:13:52;;;;;;;42.60;24.27;;;;;;;;;;5072695;28;20052;-73
2024/02/06 01:16:18;;;;;;;36.70;21.50;;;;;;;;;;5073267;28;20036;-73
2024/02/06 01:18:44;;;;;;;40.90;22.75;;;;;;;;;;5073569;28;20143;-74
2024/02/06 01:21:10;;;;;;;32.50;20.05;;;;;;;;;;5073196;28;20099;-73
2024/02/06 01:23:36;;;;;;;35.47;21.10;;;;;;;;;;5087058;28;20036;-73
2024/02/06 01:26:02;;;;;;;30.80;20.38;;;;;;;;;;5082085;28;20027;-74
2024/02/06 01:28:28;;;;;;;38.95;20.73;;;;;;;;;;5087869;28;20044;-74
2024/02/06 01:30:54;;;;;;;32.65;21.20;;;;;;;;;;5075158;28;20067;-73
2024/02/06 01:33:20;;;;;;;39.92;21.45;;;;;;;;;;5072120;28;20048;-73
2024/02/06 01:35:46;;;;;;;41.50;22.40;;;;;;;;;;5073585;28;20024;-74
2024/02/06 01:38:17;;;;;;;29.02;18.65;;;;;;;;;;5072229;28;20027;-73
2024/02/06 01:40:43;;;;;;;28.00;18.33;;;;;;;;;;5067364;28;20036;-74
2024/02/06 01:43:10;;;;;;;36.72;20.75;;;;;;;;;;5054398;28;20347;-72
2024/02/06 01:45:36;;;;;;;29.75;18.73;;;;;;;;;;5073275;28;20039;-73
2024/02/06 01:48:02;;;;;;;33.05;18.85;;;;;;;;;;5072896;28;20469;-73
2024/02/06 01:50:29;;;;;;;36.60;19.10;;;;;;;;;;5054172;28;20016;-73
2024/02/06 01:52:55;;;;;;;29.42;18.23;;;;;;;;;;5073004;28;20020;-73
2024/02/06 01:55:22;;;;;;;28.35;18.10;;;;;;;;;;5068857;28;20074;-74
2024/02/06 01:57:48;;;;;;;35.25;19.33;;;;;;;;;;5072611;28;20025;-74
2024/02/06 02:00:14;;;;;;;27.17;18.35;;;;;;;;;;5072024;28;20029;-74
2024/02/06 02:02:40;;;;;;;29.17;17.90;;;;;;;;;;5073200;28;20055;-73
2024/02/06 02:05:07;;;;;;;37.83;19.45;;;;;;;;;;5071781;28;20021;-72
2024/02/06 02:07:35;;;;;;;30.42;18.05;;;;;;;;;;5071365;28;20556;-73
2024/02/06 02:10:01;;;;;;;33.20;18.00;;;;;;;;;;5072404;28;20036;-74
2024/02/06 02:12:27;;;;;;;31.35;18.15;;;;;;;;;;5072250;28;20012;-74
2024/02/06 02:14:53;;;;;;;26.58;15.77;;;;;;;;;;5071856;28;20032;-74
2024/02/06 02:17:19;;;;;;;27.10;16.23;;;;;;;;;;5072184;28;20028;-73
2024/02/06 02:19:45;;;;;;;24.58;16.13;;;;;;;;;;5071534;28;20031;-74
2024/02/06 02:22:11;;;;;;;26.55;16.65;;;;;;;;;;5067895;28;20547;-72
2024/02/06 02:24:37;;;;;;;29.98;16.15;;;;;;;;;;5072190;28;20059;-73
2024/02/06 02:27:04;;;;;;;28.85;16.42;;;;;;;;;;5069538;28;20035;-73
2024/02/06 02:29:31;;;;;;;27.13;16.55;;;;;;;;;;5071487;28;20032;-73
2024/02/06 02:31:58;;;;;;;24.65;14.82;;;;;;;;;;5072099;28;20028;-73
2024/02/06 02:34:24;;;;;;;25.88;15.88;;;;;;;;;;5071003;28;20047;-73
2024/02/06 02:36:51;;;;;;;23.80;14.55;;;;;;;;;;5072055;28;20135;-72
2024/02/06 02:39:17;;;;;;;26.08;15.00;;;;;;;;;;5070612;28;20032;-74
2024/02/06 02:41:43;;;;;;;28.08;16.70;;;;;;;;;;5072176;28;20023;-73
2024/02/06 02:44:09;;;;;;;28.15;15.30;;;;;;;;;;5071238;28;20021;-72
2024/02/06 02:46:35;;;;;;;24.60;15.73;;;;;;;;;;5072056;28;20017;-74
2024/02/06 02:49:01;;;;;;;23.05;14.20;;;;;;;;;;5071307;28;20484;-73
2024/02/06 02:51:27;;;;;;;25.48;14.88;;;;;;;;;;5071334;28;20020;-73
2024/02/06 02:53:53;;;;;;;22.98;13.80;;;;;;;;;;5066269;28;20028;-74
2024/02/06 02:56:19;;;;;;;25.88;14.02;;;;;;;;;;5069986;28;20519;-73
2024/02/06 02:58:46;;;;;;;23.58;13.00;;;;;;;;;;5071683;28;20016;-73
2024/02/06 03:01:12;;;;;;;23.45;13.75;;;;;;;;;;5065338;28;20470;-72
2024/02/06 03:03:38;;;;;;;26.75;14.88;;;;;;;;;;5071290;28;20028;-73
2024/02/06 03:06:04;;;;;;;44.55;21.33;;;;;;;;;;5071490;28;20471;-73
2024/02/06 03:08:30;;;;;;;25.50;16.30;;;;;;;;;;5070471;28;20374;-73
2024/02/06 03:10:56;;;;;;;31.17;15.60;;;;;;;;;;5071517;28;20027;-74
2024/02/06 03:13:22;;;;;;;23.88;14.35;;;;;;;;;;5070380;28;20020;-74
2024/02/06 03:15:48;;;;;;;27.65;15.20;;;;;;;;;;5071247;28;20024;-74
2024/02/06 03:18:14;;;;;;;27.55;14.43;;;;;;;;;;5070291;28;20021;-72
2024/02/06 03:20:40;;;;;;;23.05;14.88;;;;;;;;;;5071757;28;20519;-73
2024/02/06 03:23:06;;;;;;;24.27;14.50;;;;;;;;;;5070648;28;20074;-72
2024/02/06 03:25:32;;;;;;;27.38;15.20;;;;;;;;;;5069603;28;20032;-73
2024/02/06 03:27:58;;;;;;;26.48;14.38;;;;;;;;;;5071055;28;20055;-73
2024/02/06 03:30:26;;;;;;;29.38;14.52;;;;;;;;;;5069208;28;20024;-73
2024/02/06 03:32:53;;;;;;;20.38;13.68;;;;;;;;;;5071042;28;20424;-73
2024/02/06 03:35:19;;;;;;;23.08;14.82;;;;;;;;;;5069674;28;20032;-74
2024/02/06 03:37:45;;;;;;;27.25;14.45;;;;;;;;;;5071240;28;20241;-74
2024/02/06 03:40:12;;;;;;;30.90;14.57;;;;;;;;;;5068143;28;20023;-72
2024/02/06 03:42:38;;;;;;;29.38;14.95;;;;;;;;;;5066628;28;20116;-74
2024/02/06 03:45:05;;;;;;;25.25;14.40;;;;;;;;;;5058241;28;20037;-73
2024/02/06 03:47:31;;;;;;;25.40;14.82;;;;;;;;;;5070426;28;20049;-73
2024/02/06 03:49:57;;;;;;;30.80;14.68;;;;;;;;;;5052185;28;20087;-74
2024/02/06 03:52:23;;;;;;;24.95;14.93;;;;;;;;;;5070426;28;20078;-74
2024/02/06 03:54:49;;;;;;;29.58;14.80;;;;;;;;;;5069972;28;20017;-76
2024/02/06 03:57:15;;;;;;;27.30;15.15;;;;;;;;;;5069869;28;20048;-73
2024/02/06 03:59:41;;;;;;;24.98;14.70;;;;;;;;;;5070286;28;20517;-73
2024/02/06 04:02:07;;;;;;;29.90;15.00;;;;;;;;;;5070483;28;20461;-71
2024/02/06 04:04:33;;;;;;;23.10;13.20;;;;;;;;;;5070024;28;20035;-73
2024/02/06 04:06:59;;;;;;;26.77;14.40;;;;;;;;;;5070656;28;20449;-73
2024/02/06 04:09:25;;;;;;;24.02;14.57;;;;;;;;;;5069351;28;20493;-73
2024/02/06 04:11:51;;;;;;;34.45;17.13;;;;;;;;;;5070614;28;20063;-73
2024/02/06 04:14:17;;;;;;;27.05;14.82;;;;;;;;;;5069409;28;20033;-73
2024/02/06 04:16:43;;;;;;;27.58;14.75;;;;;;;;;;5070737;28;20032;-73
2024/02/06 04:19:10;;;;;;;29.30;15.88;;;;;;;;;;5069082;28;20023;-71
2024/02/06 04:21:36;;;;;;;27.33;15.77;;;;;;;;;;5068170;28;20021;-73
2024/02/06 04:24:03;;;;;;;22.52;14.60;;;;;;;;;;5070393;28;20039;-73
2024/02/06 04:26:29;;;;;;;24.80;15.35;;;;;;;;;;5069801;28;20363;-73
2024/02/06 04:28:55;;;;;;;26.17;15.95;;;;;;;;;;5069756;28;20044;-73
2024/02/06 04:31:21;;;;;;;28.88;16.42;;;;;;;;;;5069809;28;20085;-72
2024/02/06 04:33:47;;;;;;;26.92;16.15;;;;;;;;;;5069815;28;20476;-74
2024/02/06 04:36:13;;;;;;;26.88;15.25;;;;;;;;;;5070173;28;20025;-73
2024/02/06 04:38:39;;;;;;;30.30;16.30;;;;;;;;;;5069412;28;20569;-73
2024/02/06 04:41:05;;;;;;;35.08;16.50;;;;;;;;;;5063531;28;20024;-74
2024/02/06 04:43:31;;;;;;;32.85;15.38;;;;;;;;;;5071507;28;20048;-73
2024/02/06 04:45:57;;;;;;;30.50;16.50;;;;;;;;;;5073778;28;20031;-73
2024/02/06 04:48:23;;;;;;;34.00;17.58;;;;;;;;;;5075031;28;20024;-73
2024/02/06 04:50:49;;;;;;;35.30;17.08;;;;;;;;;;5069210;28;20457;-72
2024/02/06 04:53:15;;;;;;;31.75;17.55;;;;;;;;;;5073413;28;20070;-73
2024/02/06 04:55:41;;;;;;;31.25;16.25;;;;;;;;;;5072883;28;20025;-73
2024/02/06 04:58:07;;;;;;;32.15;17.02;;;;;;;;;;5073967;28;20060;-71
2024/02/06 05:00:33;;;;;;;33.97;16.73;;;;;;;;;;5073375;28;20024;-73
2024/02/06 05:02:59;;;;;;;32.92;17.60;;;;;;;;;;5073728;28;20112;-72
2024/02/06 05:05:25;;;;;;;33.33;17.67;;;;;;;;;;5072769;28;20499;-72
2024/02/06 05:07:51;;;;;;;34.70;17.67;;;;;;;;;;5073926;28;20070;-74
2024/02/06 05:10:17;;;;;;;30.73;16.83;;;;;;;;;;5072857;28;20017;-73
2024/02/06 05:12:43;;;;;;;32.22;16.38;;;;;;;;;;5073355;28;20036;-73
2024/02/06 05:15:09;;;;;;;26.85;16.35;;;;;;;;;;5072358;28;20036;-71
2024/02/06 05:17:35;;;;;;;30.23;17.75;;;;;;;;;;5073907;28;20036;-72
2024/02/06 05:20:04;;;;;;;31.98;17.27;;;;;;;;;;5073178;28;20021;-73
2024/02/06 05:22:31;;;;;;;27.02;15.25;;;;;;;;;;5072059;28;20065;-74
2024/02/06 05:24:57;;;;;;;27.00;14.82;;;;;;;;;;5072848;28;20032;-73
2024/02/06 05:27:23;;;;;;;29.92;14.32;;;;;;;;;;5072675;28;20063;-73
2024/02/06 05:29:48;;;;;;;24.63;12.95;;;;;;;;;;5072923;28;20047;-76
2024/02/06 05:32:15;;;;;;;25.52;11.30;;;;;;;;;;5072586;28;20027;-74
2024/02/06 05:34:41;;;;;;;21.95;10.23;;;;;;;;;;5074986;28;20036;-73
2024/02/06 05:37:07;;;;;;;16.15;9.65;;;;;;;;;;5072623;28;20036;-71
2024/02/06 05:39:33;;;;;;;17.25;8.75;;;;;;;;;;5072468;28;20021;-72
2024/02/06 05:41:59;;;;;;;13.10;6.55;;;;;;;;;;5065702;28;20374;-72
2024/02/06 05:44:25;;;;;;;14.10;6.43;;;;;;;;;;5071993;28;20027;-72
2024/02/06 05:46:51;;;;;;;14.65;6.53;;;;;;;;;;5072703;28;20024;-72
2024/02/06 05:49:18;;;;;;;11.27;6.05;;;;;;;;;;5071931;28;20025;-72
2024/02/06 05:51:43;;;;;;;9.82;6.07;;;;;;;;;;5067491;28;20021;-73
2024/02/06 05:54:10;;;;;;;11.77;5.90;;;;;;;;;;5078580;28;20028;-71
2024/02/06 05:56:36;;;;;;;14.40;6.63;;;;;;;;;;5070211;28;20040;-75
2024/02/06 05:59:03;;;;;;;12.57;6.32;;;;;;;;;;5072506;28;20051;-72
2024/02/06 06:01:29;;;;;;;9.20;5.82;;;;;;;;;;5072049;28;20012;-72
2024/02/06 06:03:55;;;;;;;8.85;5.47;;;;;;;;;;5072028;28;20036;-73
2024/02/06 06:06:21;;;;;;;11.60;5.70;;;;;;;;;;5063875;28;20369;-72
2024/02/06 06:08:47;;;;;;;13.27;6.78;;;;;;;;;;5072243;28;20116;-75
2024/02/06 06:11:16;;;;;;;11.13;5.82;;;;;;;;;;5071963;28;20553;-72
2024/02/06 06:13:42;;;;;;;13.13;6.10;;;;;;;;;;5071845;28;20017;-72
2024/02/06 06:16:08;;;;;;;11.93;5.70;;;;;;;;;;5072438;28;20051;-73
2024/02/06 06:18:34;;;;;;;12.70;7.03;;;;;;;;;;5071859;28;20021;-81
2024/02/06 06:21:00;;;;;;;10.57;5.20;;;;;;;;;;5072072;28;20021;-82
2024/02/06 06:23:26;;;;;;;12.05;6.03;;;;;;;;;;5070590;28;20039;-78
2024/02/06 06:25:52;;;;;;;8.25;5.25;;;;;;;;;;5072330;28;20108;-77
2024/02/06 06:28:18;;;;;;;11.00;5.55;;;;;;;;;;5060653;28;20136;-79
2024/02/06 06:30:44;;;;;;;13.95;6.35;;;;;;;;;;5052470;28;20497;-79
2024/02/06 06:33:10;;;;;;;14.30;6.45;;;;;;;;;;5052793;28;20029;-78
2024/02/06 06:35:36;;;;;;;9.30;6.13;;;;;;;;;;5052067;28;20029;-78
2024/02/06 06:38:02;;;;;;;13.57;6.45;;;;;;;;;;5052035;28;20071;-77
2024/02/06 06:40:28;;;;;;;13.57;6.88;;;;;;;;;;5047352;28;20027;-82
2024/02/06 06:42:54;;;;;;;11.77;5.43;;;;;;;;;;5050384;28;20083;-81
2024/02/06 06:45:20;;;;;;;9.00;5.22;;;;;;;;;;5051015;28;20029;-77
2024/02/06 06:47:46;;;;;;;9.45;5.15;;;;;;;;;;5052325;28;20032;-80
2024/02/06 06:50:12;;;;;;;10.38;5.82;;;;;;;;;;5033062;28;20036;-78
2024/02/06 06:52:42;;;;;;;8.88;5.68;;;;;;;;;;5051571;28;20025;-77
2024/02/06 06:55:08;;;;;;;11.02;5.07;;;;;;;;;;5050343;28;20028;-75
2024/02/06 06:57:37;;;;;;;11.40;5.57;;;;;;;;;;5052165;28;20029;-76
2024/02/06 07:00:05;;;;;;;12.27;5.85;;;;;;;;;;5051846;28;20036;-76
2024/02/06 07:02:31;;;;;;;11.25;5.57;;;;;;;;;;5051663;28;20116;-77
2024/02/06 07:05:01;;;;;;;9.57;6.07;;;;;;;;;;5050736;28;20033;-78
2024/02/06 07:07:27;;;;;;;15.13;6.32;;;;;;;;;;5051355;28;20170;-80
2024/02/06 07:09:53;;;;;;;13.63;5.78;;;;;;;;;;5050780;28;20031;-75
2024/02/06 07:12:19;;;;;;;9.30;5.63;;;;;;;;;;5051208;28;20028;-76
2024/02/06 07:14:45;;;;;;;11.93;5.90;;;;;;;;;;5050996;28;20386;-81
2024/02/06 07:17:11;;;;;;;13.40;5.45;;;;;;;;;;5058207;28;20025;-73
2024/02/06 07:19:37;;;;;;;10.65;5.60;;;;;;;;;;5051014;28;20051;-78
2024/02/06 07:22:03;;;;;;;14.13;5.82;;;;;;;;;;5050525;28;20470;-81
2024/02/06 07:24:29;;;;;;;8.88;5.38;;;;;;;;;;5051049;28;20031;-84
2024/02/06 07:26:55;;;;;;;11.82;5.45;;;;;;;;;;5053725;28;20092;-79
2024/02/06 07:29:21;;;;;;;8.05;4.93;;;;;;;;;;5068451;28;20083;-83
2024/02/06 07:31:47;;;;;;;10.52;5.18;;;;;;;;;;5071708;28;20028;-82
2024/02/06 07:34:14;;;;;;;11.52;5.40;;;;;;;;;;5062257;28;20074;-77
2024/02/06 07:36:40;;;;;;;9.07;5.72;;;;;;;;;;5071206;28;20035;-78
2024/02/06 07:39:06;;;;;;;10.27;4.95;;;;;;;;;;5069102;28;20495;-80
2024/02/06 07:41:32;;;;;;;9.40;4.97;;;;;;;;;;5071693;28;20354;-80
2024/02/06 07:43:58;;;;;;;11.38;4.85;;;;;;;;;;5070721;28;20040;-81
2024/02/06 07:46:24;;;;;;;10.70;5.03;;;;;;;;;;5070670;28;20070;-79
2024/02/06 07:48:54;;;;;;;8.57;4.55;;;;;;;;;;5070164;28;20037;-76
2024/02/06 07:51:20;;;;;;;10.00;5.27;;;;;;;;;;5063650;28;20043;-76
2024/02/06 07:53:46;;;;;;;10.52;5.00;;;;;;;;;;5065216;28;20897;-78
2024/02/06 07:56:11;;;;;;;8.50;4.32;;;;;;;;;;5070204;28;20029;-77
2024/02/06 07:58:37;;;;;;;8.68;4.45;;;;;;;;;;5069618;28;20471;-77
2024/02/06 08:01:03;;;;;;;8.15;4.50;;;;;;;;;;5070199;28;20039;-78
2024/02/06 08:03:29;;;;;;;9.43;4.53;;;;;;;;;;5062820;28;20357;-76
2024/02/06 08:05:55;;;;;;;8.23;4.80;;;;;;;;;;5048285;28;20016;-77
2024/02/06 08:08:22;;;;;;;11.43;6.05;;;;;;;;;;5067573;28;20028;-79
2024/02/06 08:10:48;;;;;;;9.18;4.50;;;;;;;;;;5065026;28;20029;-77
2024/02/06 08:13:13;;;;;;;9.25;4.38;;;6.70;99.90;;;;;;5069973;28;20394;-78
2024/02/06 08:15:40;;;;;;;7.72;4.05;;;5.70;99.90;;;;;;5064231;28;20025;-78
2024/02/06 08:18:07;;;;;;;9.40;4.72;;;5.60;99.90;;;;;;5065081;28;20143;-77
2024/02/06 08:20:33;;;;;;;8.60;4.28;;;5.60;99.90;;;;;;5070530;28;20453;-77
2024/02/06 08:22:59;;;;;;;10.05;4.40;;;5.70;99.90;;;;;;5064473;28;20040;-80
2024/02/06 08:25:25;;;;;;;11.52;4.28;;;5.70;99.90;;;;;;5069949;28;20111;-75
2024/02/06 08:27:51;;;;;;;15.75;4.25;;;5.80;99.90;;;;;;5064841;28;20131;-77
2024/02/06 08:30:17;;;;;;;9.48;3.83;;;5.90;99.90;;;;;;5072963;28;20512;-76
2024/02/06 08:32:44;;;;;;;9.30;4.00;;;5.90;99.90;;;;;;5071501;28;20025;-75
2024/02/06 08:35:09;;;;;;;8.77;4.25;;;6.00;99.90;;;;;;5065651;28;20051;-78
2024/02/06 08:37:35;;;;;;;9.65;4.53;;;6.00;99.90;;;;;;5071258;28;20056;-74
2024/02/06 08:40:05;;;;;;;9.50;4.38;;;6.10;99.90;;;;;;5065821;28;20074;-76
2024/02/06 08:42:31;;;;;;;9.52;4.35;;;6.10;99.90;;;;;;5065098;28;20396;-76
2024/02/06 08:44:56;;;;;;;9.88;4.32;;;6.20;99.90;;;;;;5054976;28;20052;-77
2024/02/06 08:47:23;;;;;;;11.65;5.10;;;6.30;99.90;;;;;;5054657;28;20362;-77
2024/02/06 08:49:50;;;;;;;8.95;5.18;;;6.30;99.90;;;;;;5065704;28;20025;-80
2024/02/06 08:52:15;;;;;;;16.77;5.97;;;6.40;99.90;;;;;;5070533;28;20117;-80
2024/02/06 08:54:41;;;;;;;8.88;4.78;;;6.50;99.90;;;;;;5068347;28;20071;-77
2024/02/06 08:57:07;;;;;;;8.93;4.45;;;6.50;99.90;;;;;;5070128;28;20037;-73
2024/02/06 08:59:32;;;;;;;7.82;4.28;;;6.60;99.90;;;;;;5068267;28;20040;-76
2024/02/06 09:02:01;;;;;;;10.52;4.72;;;6.60;99.90;;;;;;5067555;28;20039;-76
2024/02/06 09:04:27;;;;;;;9.90;4.88;;;6.70;99.90;;;;;;5068780;28;20674;-76
2024/02/06 09:06:52;;;;;;;7.05;4.07;;;6.70;99.90;;;;;;5081571;28;20393;-74
2024/02/06 09:09:19;;;;;;;7.78;4.45;;;6.70;99.90;;;;;;5088961;28;20159;-75
2024/02/06 09:11:44;;;;;;;8.27;4.25;;;6.70;99.90;;;;;;5086532;28;20036;-75
2024/02/06 09:14:10;;;;;;;11.77;4.45;;;6.70;99.90;;;;;;5083871;28;20029;-80
2024/02/06 09:16:35;;;;;;;8.57;4.15;;;6.70;99.90;;;;;;5067865;28;20082;-82
2024/02/06 09:19:01;;;;;;;9.05;3.92;;;6.70;99.90;;;;;;5065739;28;20035;-81
2024/02/06 09:21:26;;;;;;;9.82;4.50;;;6.70;99.90;;;;;;5061269;28;20439;-82
2024/02/06 09:23:52;;;;;;;9.27;4.82;;;6.80;99.90;;;;;;5069887;28;20082;-78
2024/02/06 09:26:18;;;;;;;7.50;3.78;;;6.90;99.90;;;;;;5065961;28;20067;-78
2024/02/06 09:28:44;;;;;;;7.25;3.60;;;7.00;99.90;;;;;;5068548;28;20040;-77
2024/02/06 09:31:11;;;;;;;6.93;3.85;;;7.10;99.90;;;;;;5071612;28;20031;-78
2024/02/06 09:33:37;;;;;;;9.55;4.20;;;7.20;99.90;;;;;;5072725;28;20029;-76
2024/02/06 09:36:04;;;;;;;7.18;4.07;;;7.30;99.90;;;;;;5074507;28;20036;-77
2024/02/06 09:38:29;;;;;;;6.97;3.28;;;7.50;99.90;;;;;;5072399;28;20032;-80
2024/02/06 09:40:55;;;;;;;6.38;3.58;;;7.70;99.90;;;;;;5073615;28;20465;-79
2024/02/06 09:43:24;;;;;;;5.35;3.25;;;7.80;99.90;;;;;;5072591;28;20373;-80
2024/02/06 09:45:50;;;;;;;6.38;3.17;;;7.90;99.90;;;;;;5074096;28;20032;-81
2024/02/06 09:48:16;;;;;;;7.88;3.25;;;8.00;99.90;;;;;;5069665;28;20040;-84
2024/02/06 09:50:42;;;;;;;5.72;3.30;;;8.10;99.90;;;;;;5071612;28;20111;-77
2024/02/06 09:53:12;;;;;;;6.10;3.13;;;8.20;99.90;;;;;;5065554;28;20025;-78
2024/02/06 09:55:41;;;;;;;6.70;3.28;;;8.30;99.90;;;;;;5059821;28;20035;-80
2024/02/06 09:58:08;;;;;;;6.45;2.70;;;8.40;99.90;;;;;;5062482;28;20515;-73
2024/02/06 10:00:36;;;;;;;5.45;2.40;;;8.50;99.90;;;;;;5068901;28;20155;-80
2024/02/06 10:03:22;;;;;;;7.45;2.53;;;8.60;99.90;;;;;;5073337;28;20111;-80
2024/02/06 10:05:50;;;;;;;6.65;3.20;;;8.60;99.90;;;;;;5068453;28;20110;-79
2024/02/06 10:08:17;;;;;;;6.22;3.63;;;8.60;99.90;;;;;;5069118;28;20535;-80
2024/02/06 10:10:46;;;;;;;4.57;3.10;;;8.60;99.90;;;;;;5072543;28;20465;-78
2024/02/06 10:13:12;;;;;;;8.30;3.33;;;8.60;99.90;;;;;;5071713;28;20025;-77
2024/02/06 10:15:38;;;;;;;5.18;3.05;;;8.60;99.90;;;;;;5065741;28;20508;-79
2024/02/06 10:18:04;;;;;;;6.72;3.00;;;8.60;99.90;;;;;;5066830;28;20025;-77
2024/02/06 10:20:40;;;;;;;5.65;2.40;;;8.70;99.90;;;;;;5071193;28;20024;-77
2024/02/06 10:23:14;;;;;;;4.43;2.58;;;8.80;99.90;;;;;;5072596;28;20112;-77
2024/02/06 10:25:39;;;;;;;5.88;2.70;;;8.80;99.90;;;;;;5071422;28;20104;-79
2024/02/06 10:28:06;;;;;;;4.90;2.17;;;8.90;99.90;;;;;;5062655;28;20462;-80
2024/02/06 10:30:35;;;;;;;5.18;2.50;;;9.00;99.90;;;;;;5072666;28;20035;-82
2024/02/06 10:33:14;;;;;;;6.45;2.75;;;9.10;99.90;;;;;;5071302;28;20416;-82
2024/02/06 10:35:40;;;;;;;4.03;2.10;;;9.20;99.90;;;;;;5070342;28;20127;-76
2024/02/06 10:38:12;;;;;;;6.00;1.73;;;9.30;99.90;;;;;;5072862;28;20044;-80
2024/02/06 10:40:43;;;;;;;3.30;1.50;;;9.40;99.90;;;;;;5062281;28;20037;-79
2024/02/06 10:43:09;;;;;;;7.22;2.00;;;9.50;99.90;;;;;;5070716;28;20024;-76
2024/02/06 10:45:35;;;;;;;3.03;1.20;;;9.60;99.90;;;;;;5072882;28;20033;-85
2024/02/06 10:48:02;;;;;;;3.97;1.67;;;9.60;99.90;;;;;;5058893;28;20116;-78
2024/02/06 10:50:29;;;;;;;6.07;1.60;;;9.70;99.90;;;;;;5052795;28;20499;-80
2024/02/06 10:52:55;;;;;;;3.00;1.10;;;9.70;99.90;;;;;;5071186;28;20432;-79
2024/02/06 10:55:21;;;;;;;3.38;1.17;;;9.80;99.90;;;;;;5065140;28;20036;-78
2024/02/06 10:57:47;;;;;;;5.13;1.23;;;9.80;99.90;;;;;;5072138;28;20033;-78
2024/02/06 11:00:20;;;;;;;5.20;1.05;;;9.80;99.90;;;;;;5067174;28;20371;-80
2024/02/06 11:02:51;;;;;;;4.72;1.95;;;9.90;99.90;;;;;;5064887;28;20482;-80
2024/02/06 11:05:19;;;;;;;2.72;1.40;;;10.00;99.90;;;;;;5058441;28;20045;-80
2024/02/06 11:07:54;;;;;;;9.15;1.55;;;10.00;99.90;;;;;;5064357;28;20028;-79
2024/02/06 11:10:23;;;;;;;10.85;1.50;;;10.20;99.90;;;;;;5070952;28;20082;-78
2024/02/06 11:13:03;;;;;;;3.20;1.00;;;10.20;99.90;;;;;;5068470;28;20067;-77
2024/02/06 11:15:30;;;;;;;17.13;1.67;;;10.30;99.90;;;;;;5056936;28;20396;-79
2024/02/06 11:17:56;;;;;;;2.90;1.00;;;10.30;99.90;;;;;;5066441;28;20394;-79
2024/02/06 11:20:28;;;;;;;4.80;1.23;;;10.30;99.90;;;;;;5062828;28;20033;-81
2024/02/06 11:22:55;;;;;;;2.55;1.38;;;10.40;99.90;;;;;;5070772;28;20082;-79
2024/02/06 11:25:25;;;;;;;4.50;1.40;;;10.40;99.90;;;;;;5068498;28;20465;-80
2024/02/06 11:27:51;;;;;;;;;;;10.50;99.90;;;;;;5058016;28;20466;-77
2024/02/06 11:30:18;;;;;;;4.10;0.85;;;10.40;99.90;;;;;;5068577;28;19946;-78
2024/02/06 11:32:44;;;;;;;5.30;1.55;;;10.50;99.90;;;;;;5070882;28;20462;-77
2024/02/06 11:35:09;;;;;;;4.35;1.27;;;10.50;99.90;;;;;;5063890;28;20054;-77
2024/02/06 11:37:35;;;;;;;5.72;1.20;;;10.60;99.90;;;;;;5069102;28;20033;-77
2024/02/06 11:40:07;;;;;;;4.13;1.52;;;10.60;99.90;;;;;;5070174;28;20377;-77
2024/02/06 11:42:34;;;;;;;2.92;1.15;;;10.60;99.90;;;;;;5054268;28;20033;-77
2024/02/06 11:45:12;;;;;;;3.00;1.30;;;10.60;99.90;;;;;;5070212;28;20036;-77
2024/02/06 11:47:49;;;;;;;6.18;1.13;;;10.40;99.90;;;;;;5071503;28;20067;-78
2024/02/06 11:50:15;;;;;;;7.32;1.50;;;10.50;99.90;;;;;;5062904;28;20025;-78
2024/02/06 11:52:41;;;;;;;7.68;1.45;;;10.50;99.90;;;;;;5066248;28;20089;-78
2024/02/06 11:55:08;;;;;;;6.18;1.45;;;10.50;99.90;;;;;;5061367;28;20521;-75
2024/02/06 11:57:35;;;;;;;3.67;1.90;;;10.60;99.90;;;;;;5071364;28;20036;-79
2024/02/06 12:00:01;;;;;;;3.58;1.50;;;10.60;99.90;;;;;;5063329;28;20021;-79
2024/02/06 12:02:26;;;;;;;4.57;1.58;;;10.70;99.90;;;;;;5062571;28;20028;-77
2024/02/06 12:05:03;;;;;;;6.40;1.83;;;10.70;99.90;;;;;;5061794;28;20056;-79
2024/02/06 12:07:28;;;;;;;4.45;1.80;;;10.70;99.90;;;;;;5063168;28;20113;-79
2024/02/06 12:09:54;;;;;;;10.13;1.90;;;10.80;99.90;;;;;;5064323;28;20478;-77
2024/02/06 12:12:20;;;;;;;4.85;1.55;;;10.80;99.90;;;;;;5064671;28;20385;-77
2024/02/06 12:14:46;;;;;;;8.38;1.80;;;10.90;99.90;;;;;;5070028;28;20055;-77
2024/02/06 12:17:13;;;;;;;7.90;1.88;;;10.90;99.90;;;;;;5062458;28;20033;-78
2024/02/06 12:19:38;;;;;;;9.45;1.63;;;11.00;99.90;;;;;;5070407;28;20465;-79
2024/02/06 12:22:07;;;;;;;3.42;1.33;;;10.90;99.90;;;;;;5070531;28;20068;-81
2024/02/06 12:24:34;;;;;;;6.07;1.92;;;10.90;99.90;;;;;;5070056;28;20039;-79
2024/02/06 12:27:07;;;;;;;6.38;1.40;;;10.90;99.90;;;;;;5065870;28;20028;-79
2024/02/06 12:29:41;;;;;;;7.10;1.55;;;10.90;99.90;;;;;;5061798;28;20068;-78
2024/02/06 12:32:08;;;;;;;5.60;1.95;;;10.90;99.90;;;;;;5050107;28;20076;-76
2024/02/06 12:34:34;;;;;;;6.60;1.70;;;10.90;99.90;;;;;;5049437;28;20040;-80
2024/02/06 12:37:01;;;;;;;7.20;1.55;;;10.90;99.90;;;;;;5047467;28;20041;-78
2024/02/06 12:39:30;;;;;;;9.32;1.48;;;10.90;99.90;;;;;;5049451;28;20810;-77
2024/02/06 12:42:03;;;;;;;17.80;2.33;;;10.90;99.90;;;;;;5043391;28;20421;-78
2024/02/06 12:44:29;;;;;;;6.78;1.65;;;11.00;99.90;;;;;;5049251;28;20033;-78
2024/02/06 12:46:59;;;;;;;5.45;1.65;;;11.00;99.90;;;;;;5032557;28;20458;-77
2024/02/06 12:49:28;;;;;;;9.95;2.15;;;10.90;99.90;;;;;;5049772;28;20025;-80
2024/02/06 12:51:56;;;;;;;12.57;1.95;;;10.90;99.90;;;;;;5050645;28;20048;-79
2024/02/06 12:54:25;;;;;;;7.15;1.38;;;10.80;99.90;;;;;;5049667;28;20478;-75
2024/02/06 12:56:57;;;;;;;5.95;1.38;;;10.80;99.90;;;;;;5050720;28;20033;-77
2024/02/06 12:59:23;;;;;;;5.97;1.55;;;10.80;99.90;;;;;;5049355;28;20025;-76
2024/02/06 13:01:49;;;;;;;7.13;2.35;;;10.80;99.90;;;;;;5050718;28;20025;-78
2024/02/06 13:04:25;;;;;;;8.40;2.00;;;10.80;99.90;;;;;;5051641;28;20051;-80
2024/02/06 13:06:52;;;;;;;6.72;1.67;;;10.70;99.90;;;;;;5036478;28;20033;-78
2024/02/06 13:09:25;;;;;;;7.18;1.50;;;10.70;99.90;;;;;;5052912;28;20037;-80
2024/02/06 13:11:51;;;;;;;11.05;1.40;;;10.70;99.90;;;;;;5054412;28;20025;-79
2024/02/06 13:14:16;;;;;;;3.13;1.58;;;10.70;99.90;;;;;;5052620;28;20043;-80
2024/02/06 13:16:43;;;;;;;6.22;1.35;;;10.70;99.90;;;;;;5054889;28;20393;-82
2024/02/06 13:19:08;;;;;;;4.60;1.88;;;10.60;99.90;;;;;;5053608;28;20458;-84
2024/02/06 13:21:41;;;;;;;8.93;1.90;;;10.60;99.90;;;;;;5054993;28;20105;-80
2024/02/06 13:24:07;;;;;;;9.25;1.50;;;10.60;99.90;;;;;;5052752;28;20062;-74
2024/02/06 13:26:33;;;;;;;7.90;1.33;;;10.50;99.90;;;;;;5054786;28;20428;-85
2024/02/06 13:28:59;;;;;;;7.93;2.35;;;10.40;99.90;;;;;;5064429;28;20200;-84
2024/02/06 13:31:24;;;;;;;4.45;2.03;;;10.40;99.90;;;;;;5053737;28;20477;-86
2024/02/06 13:33:51;;;;;;;9.18;1.80;;;10.40;99.90;;;;;;5054331;28;20082;-85
2024/02/06 13:36:17;;;;;;;3.22;1.30;;;10.40;99.90;;;;;;5054263;28;20108;-84
2024/02/06 13:38:43;;;;;;;9.55;1.20;;;10.40;99.90;;;;;;5051730;28;20517;-84
2024/02/06 13:41:09;;;;;;;5.95;1.73;;;10.50;99.90;;;;;;5052948;28;20017;-83